createdAt,value
2022-11-17T00:00:42.494Z,97791.25
2022-11-17T00:03:16.906Z,97793.09
2022-11-17T00:05:45.130Z,97801.50
2022-11-17T00:08:13.443Z,97805.25
2022-11-17T00:10:41.535Z,97797.38
2022-11-17T00:13:29.472Z,97799.44
2022-11-17T00:15:57.776Z,97782.66
2022-11-17T00:18:44.466Z,97790.69
2022-11-17T00:21:23.971Z,97784.41
2022-11-17T00:23:51.978Z,97782.97
2022-11-17T00:26:27.826Z,97782.75
2022-11-17T00:29:00.665Z,97791.03
2022-11-17T00:31:49.044Z,97783.66
2022-11-17T00:34:22.263Z,97786.97
2022-11-17T00:36:55.626Z,97779.31
2022-11-17T00:39:24.376Z,97782.87
2022-11-17T00:41:52.645Z,97776.66
2022-11-17T00:44:20.664Z,97787.16
2022-11-17T00:46:49.089Z,97787.91
2022-11-17T00:49:18.208Z,97787.56
2022-11-17T00:51:46.185Z,97783.28
2022-11-17T00:54:15.147Z,97774.06
2022-11-17T00:56:43.572Z,97782.03
2022-11-17T00:59:11.937Z,97783.06
2022-11-17T01:01:40.313Z,97782.84
2022-11-17T01:04:08.776Z,97778.59
2022-11-17T01:06:42.707Z,97768.25
2022-11-17T01:09:16.433Z,97765.03
2022-11-17T01:11:44.884Z,97765.81
2022-11-17T01:14:16.028Z,97770.34
2022-11-17T01:16:44.784Z,97762.69
2022-11-17T01:19:14.176Z,97763.44
2022-11-17T01:21:42.947Z,97752.63
2022-11-17T01:24:12.336Z,97758.22
2022-11-17T01:26:40.725Z,97748.69
2022-11-17T01:29:10.657Z,97753.22
2022-11-17T01:31:40.394Z,97753.06
2022-11-17T01:34:08.717Z,97754.81
2022-11-17T01:37:00.390Z,97758.13
2022-11-17T01:39:30.122Z,97752.47
2022-11-17T01:41:58.806Z,97746.94
2022-11-17T01:44:41.990Z,97747.66
2022-11-17T01:47:52.235Z,97746.19
2022-11-17T01:50:40.517Z,97754.75
2022-11-17T01:53:15.655Z,97764.69
2022-11-17T01:55:56.517Z,97758.84
2022-11-17T01:58:29.266Z,97772.50
2022-11-17T02:00:57.441Z,97771.19
2022-11-17T02:03:26.654Z,97781.66
2022-11-17T02:06:15.176Z,97762.88
2022-11-17T02:08:46.454Z,97779.38
2022-11-17T02:11:17.914Z,97784.16
2022-11-17T02:13:46.585Z,97786.91
2022-11-17T02:16:15.879Z,97782.56
2022-11-17T02:18:45.024Z,97775.81
2022-11-17T02:21:47.356Z,97768.84
2022-11-17T02:24:24.075Z,97765.16
2022-11-17T02:27:13.757Z,97757.12
2022-11-17T02:30:00.844Z,97758.50
2022-11-17T02:32:53.723Z,97760.84
2022-11-17T02:35:36.576Z,97747.66
2022-11-17T02:38:16.978Z,97751.91
2022-11-17T02:41:34.354Z,97756.06
2022-11-17T02:44:17.643Z,97741.81
2022-11-17T02:47:05.133Z,97740.06
2022-11-17T02:49:38.413Z,97737.47
2022-11-17T02:52:07.034Z,97742.19
2022-11-17T02:54:35.354Z,97752.47
2022-11-17T02:57:03.233Z,97754.69
2022-11-17T02:59:37.815Z,97739.31
2022-11-17T03:02:24.604Z,97741.53
2022-11-17T03:05:06.563Z,97738.06
2022-11-17T03:07:53.564Z,97725.00
2022-11-17T03:10:24.063Z,97733.59
2022-11-17T03:13:10.723Z,97730.97
2022-11-17T03:15:47.574Z,97728.13
2022-11-17T03:18:18.844Z,97725.84
2022-11-17T03:21:21.752Z,97714.91
2022-11-17T03:24:11.846Z,97709.34
2022-11-17T03:26:48.273Z,97708.31
2022-11-17T03:29:19.013Z,97704.41
2022-11-17T03:31:48.803Z,97701.75
2022-11-17T03:34:21.347Z,97702.16
2022-11-17T03:36:53.023Z,97709.25
2022-11-17T03:39:44.289Z,97719.41
2022-11-17T03:42:26.671Z,97719.19
2022-11-17T03:45:02.449Z,97734.59
2022-11-17T03:47:32.433Z,97736.13
2022-11-17T03:50:15.621Z,97744.63
2022-11-17T03:52:44.991Z,97749.66
2022-11-17T03:55:13.784Z,97759.09
2022-11-17T03:57:54.213Z,97756.19
2022-11-17T04:00:22.523Z,97760.97
2022-11-17T04:02:55.455Z,97765.13
2022-11-17T04:05:23.341Z,97772.78
2022-11-17T04:07:51.661Z,97773.75
2022-11-17T04:10:26.039Z,97760.84
2022-11-17T04:13:13.003Z,97762.66
2022-11-17T04:15:59.537Z,97758.84
2022-11-17T04:18:27.911Z,97755.44
2022-11-17T04:20:57.322Z,97749.97
2022-11-17T04:23:26.069Z,97758.84
2022-11-17T04:26:14.873Z,97757.25
2022-11-17T04:28:49.122Z,97761.19
2022-11-17T04:31:28.822Z,97761.72
2022-11-17T04:34:05.004Z,97749.75
2022-11-17T04:36:35.332Z,97753.28
2022-11-17T04:39:04.076Z,97761.63
2022-11-17T04:41:50.622Z,97759.72
2022-11-17T04:44:19.092Z,97767.16
2022-11-17T04:46:47.073Z,97775.81
2022-11-17T04:49:16.142Z,97778.78
2022-11-17T04:51:44.982Z,97785.16
2022-11-17T04:54:15.523Z,97772.41
2022-11-17T04:56:43.692Z,97774.13
2022-11-17T04:59:12.123Z,97766.22
2022-11-17T05:01:40.085Z,97780.28
2022-11-17T05:04:10.314Z,97793.78
2022-11-17T05:06:41.693Z,97790.44
2022-11-17T05:09:12.332Z,97797.00
2022-11-17T05:11:59.544Z,97801.47
2022-11-17T05:14:28.407Z,97800.91
2022-11-17T05:17:10.579Z,97794.91
2022-11-17T05:19:41.711Z,97795.34
2022-11-17T05:22:29.367Z,97800.38
2022-11-17T05:24:57.594Z,97797.25
2022-11-17T05:27:26.185Z,97794.03
2022-11-17T05:29:54.382Z,97794.38
2022-11-17T05:32:22.312Z,97793.06
2022-11-17T05:34:50.594Z,97796.44
2022-11-17T05:37:18.531Z,97792.97
2022-11-17T05:39:46.486Z,97795.22
2022-11-17T05:42:14.864Z,97792.59
2022-11-17T05:44:42.804Z,97793.66
2022-11-17T05:47:10.694Z,97794.44
2022-11-17T05:49:39.034Z,97797.91
2022-11-17T05:52:06.934Z,97806.69
2022-11-17T05:54:34.978Z,97804.38
2022-11-17T05:57:12.855Z,97810.69
2022-11-17T05:59:50.745Z,97811.53
2022-11-17T06:02:28.445Z,97819.84
2022-11-17T06:04:56.882Z,97824.94
2022-11-17T06:07:25.157Z,97819.91
2022-11-17T06:09:53.722Z,97823.81
2022-11-17T06:12:22.189Z,97822.44
2022-11-17T06:14:50.234Z,97823.25
2022-11-17T06:17:25.983Z,97822.84
2022-11-17T06:20:10.702Z,97814.13
2022-11-17T06:22:39.596Z,97817.19
2022-11-17T06:25:10.904Z,97812.34
2022-11-17T06:27:39.645Z,97808.25
2022-11-17T06:30:08.357Z,97813.47
2022-11-17T06:32:38.393Z,97811.44
2022-11-17T06:35:08.226Z,97804.94
2022-11-17T06:37:36.610Z,97807.88
2022-11-17T06:40:05.195Z,97808.75
2022-11-17T06:42:51.897Z,97819.81
2022-11-17T06:45:20.089Z,97824.59
2022-11-17T06:47:48.084Z,97840.19
2022-11-17T06:50:18.084Z,97842.19
2022-11-17T06:52:49.104Z,97837.06
2022-11-17T06:55:17.360Z,97847.09
2022-11-17T06:57:50.325Z,97847.31
2022-11-17T07:00:21.698Z,97850.53
2022-11-17T07:02:49.808Z,97860.56
2022-11-17T07:05:18.226Z,97862.78
2022-11-17T07:07:46.775Z,97856.25
2022-11-17T07:10:14.826Z,97859.53
2022-11-17T07:12:43.125Z,97862.47
2022-11-17T07:15:11.832Z,97852.16
2022-11-17T07:17:39.798Z,97854.69
2022-11-17T07:20:08.316Z,97848.09
2022-11-17T07:22:37.453Z,97849.09
2022-11-17T07:25:06.076Z,97850.66
2022-11-17T07:27:34.247Z,97850.81
2022-11-17T07:30:06.827Z,97853.44
2022-11-17T07:32:35.255Z,97850.75
2022-11-17T07:35:06.126Z,97851.41
2022-11-17T07:37:34.626Z,97856.12
2022-11-17T07:40:02.677Z,97865.66
2022-11-17T07:42:31.505Z,97863.91
2022-11-17T07:44:59.686Z,97862.22
2022-11-17T07:47:27.753Z,97864.34
2022-11-17T07:49:56.290Z,97866.44
2022-11-17T07:52:24.332Z,97872.72
2022-11-17T07:54:52.319Z,97862.34
2022-11-17T07:57:21.731Z,97862.66
2022-11-17T07:59:49.816Z,97872.00
2022-11-17T08:02:17.854Z,97869.53
2022-11-17T08:04:46.272Z,97866.34
2022-11-17T08:07:14.454Z,97867.09
2022-11-17T08:09:42.717Z,97869.53
2022-11-17T08:12:11.175Z,97859.53
2022-11-17T08:14:39.195Z,97864.66
2022-11-17T08:17:07.404Z,97868.44
2022-11-17T08:19:35.898Z,97871.44
2022-11-17T08:22:04.034Z,97875.41
2022-11-17T08:24:32.044Z,97871.22
2022-11-17T08:27:00.457Z,97874.91
2022-11-17T08:29:28.516Z,97869.94
2022-11-17T08:31:56.604Z,97872.16
2022-11-17T08:34:25.182Z,97874.19
2022-11-17T08:36:53.365Z,97876.91
2022-11-17T08:39:21.618Z,97878.78
2022-11-17T08:41:51.946Z,97877.00
2022-11-17T08:44:20.045Z,97877.22
2022-11-17T08:46:49.299Z,97890.59
2022-11-17T08:49:18.049Z,97897.59
2022-11-17T08:51:46.134Z,97892.91
2022-11-17T08:54:14.415Z,97900.25
2022-11-17T08:56:42.864Z,97901.47
2022-11-17T08:59:13.320Z,97898.25
2022-11-17T09:01:41.691Z,97889.03
2022-11-17T09:04:10.236Z,97892.22
2022-11-17T09:06:38.315Z,97890.72
2022-11-17T09:09:06.702Z,97891.06
2022-11-17T09:11:35.445Z,97893.22
2022-11-17T09:14:03.975Z,97902.91
2022-11-17T09:16:32.174Z,97903.19
2022-11-17T09:19:00.662Z,97919.38
2022-11-17T09:21:31.885Z,97911.50
2022-11-17T09:24:00.285Z,97915.47
2022-11-17T09:26:28.463Z,97912.72
2022-11-17T09:28:56.494Z,97918.34
2022-11-17T09:31:25.142Z,97918.47
2022-11-17T09:33:53.295Z,97909.78
2022-11-17T09:36:21.523Z,97903.03
2022-11-17T09:38:51.025Z,97911.03
2022-11-17T09:41:26.570Z,97908.69
2022-11-17T09:43:59.794Z,97905.59
2022-11-17T09:46:51.398Z,97906.34
2022-11-17T09:49:29.125Z,97897.94
2022-11-17T09:51:59.015Z,97898.25
2022-11-17T09:54:43.244Z,97898.37
2022-11-17T09:57:28.326Z,97889.72
2022-11-17T10:00:04.445Z,97884.16
2022-11-17T10:02:33.376Z,97884.44
2022-11-17T10:05:02.171Z,97876.38
2022-11-17T10:07:32.231Z,97880.69
2022-11-17T10:10:01.695Z,97879.81
2022-11-17T10:12:39.219Z,97886.47
2022-11-17T10:15:31.538Z,97886.12
2022-11-17T10:18:00.025Z,97885.13
2022-11-17T10:20:28.107Z,97890.13
2022-11-17T10:22:56.919Z,97883.06
2022-11-17T10:25:43.566Z,97879.50
2022-11-17T10:28:32.672Z,97874.28
2022-11-17T10:31:01.145Z,97871.56
2022-11-17T10:33:38.819Z,97879.31
2022-11-17T10:36:15.764Z,97876.41
2022-11-17T10:38:44.414Z,97875.25
2022-11-17T10:41:23.584Z,97874.34
2022-11-17T10:44:02.253Z,97872.63
2022-11-17T10:46:41.593Z,97882.84
2022-11-17T10:49:27.630Z,97880.00
2022-11-17T10:52:06.345Z,97875.37
2022-11-17T10:54:34.521Z,97886.19
2022-11-17T10:57:07.474Z,97886.00
2022-11-17T10:59:57.042Z,97885.28
2022-11-17T11:02:38.062Z,97877.25
2022-11-17T11:05:19.286Z,97875.09
2022-11-17T11:07:47.815Z,97867.94
2022-11-17T11:10:16.046Z,97869.19
2022-11-17T11:13:15.197Z,97860.53
2022-11-17T11:15:45.226Z,97861.28
2022-11-17T11:18:14.995Z,97862.03
2022-11-17T11:21:05.478Z,97866.59
2022-11-17T11:24:18.034Z,97870.00
2022-11-17T11:26:57.653Z,97873.97
2022-11-17T11:30:05.669Z,97882.94
2022-11-17T11:33:09.704Z,97881.87
2022-11-17T11:36:05.335Z,97877.84
2022-11-17T11:39:35.617Z,97871.12
2022-11-17T11:42:30.332Z,97875.44
2022-11-17T11:45:08.096Z,97873.44
2022-11-17T11:47:54.713Z,97877.28
2022-11-17T11:50:23.278Z,97875.41
2022-11-17T11:53:03.317Z,97869.09
2022-11-17T11:55:35.455Z,97870.31
2022-11-17T11:58:20.866Z,97863.78
2022-11-17T12:00:51.946Z,97863.16
2022-11-17T12:03:33.977Z,97864.38
2022-11-17T12:06:37.965Z,97870.12
2022-11-17T12:09:28.422Z,97873.47
2022-11-17T12:12:00.475Z,97871.38
2022-11-17T12:14:37.144Z,97865.97
2022-11-17T12:17:17.425Z,97863.00
2022-11-17T12:19:50.622Z,97862.34
2022-11-17T12:22:38.290Z,97870.12
2022-11-17T12:25:18.565Z,97871.50
2022-11-17T12:27:50.185Z,97874.63
2022-11-17T12:30:30.877Z,97880.19
2022-11-17T12:33:05.019Z,97875.97
2022-11-17T12:35:38.155Z,97878.03
2022-11-17T12:38:18.095Z,97877.06
2022-11-17T12:40:47.436Z,97878.97
2022-11-17T12:43:15.537Z,97880.09
2022-11-17T12:45:53.878Z,97880.97
2022-11-17T12:48:34.103Z,97874.97
2022-11-17T12:51:09.054Z,97876.88
2022-11-17T12:54:02.037Z,97880.19
2022-11-17T12:56:45.294Z,97870.94
2022-11-17T12:59:24.475Z,97877.97
2022-11-17T13:02:12.355Z,97877.00
2022-11-17T13:04:50.268Z,97878.78
2022-11-17T13:07:21.627Z,97885.75
2022-11-17T13:09:57.240Z,97892.38
2022-11-17T13:12:28.270Z,97896.78
2022-11-17T13:14:58.637Z,97888.72
2022-11-17T13:17:29.845Z,97893.22
2022-11-17T13:20:05.164Z,97891.25
2022-11-17T13:22:36.470Z,97881.87
2022-11-17T13:25:24.466Z,97889.34
2022-11-17T13:27:57.155Z,97896.81
2022-11-17T13:30:30.717Z,97896.72
2022-11-17T13:33:01.798Z,97901.59
2022-11-17T13:35:32.886Z,97899.91
2022-11-17T13:38:22.045Z,97905.66
2022-11-17T13:40:51.807Z,97913.34
2022-11-17T13:43:21.279Z,97915.06
2022-11-17T13:45:53.563Z,97913.47
2022-11-17T13:48:38.825Z,97909.97
2022-11-17T13:51:28.377Z,97914.25
2022-11-17T13:53:58.562Z,97916.91
2022-11-17T13:56:38.248Z,97915.44
2022-11-17T13:59:23.908Z,97919.22
2022-11-17T14:02:16.684Z,97916.31
2022-11-17T14:05:07.403Z,97911.28
2022-11-17T14:07:39.667Z,97909.50
2022-11-17T14:10:29.773Z,97906.34
2022-11-17T14:13:00.905Z,97907.47
2022-11-17T14:15:31.714Z,97901.22
2022-11-17T14:18:01.364Z,97906.22
2022-11-17T14:20:33.542Z,97899.97
2022-11-17T14:23:10.694Z,97891.75
2022-11-17T14:25:41.068Z,97891.94
2022-11-17T14:28:17.225Z,97894.69
2022-11-17T14:30:50.909Z,97898.72
2022-11-17T14:33:18.975Z,97903.19
2022-11-17T14:35:56.498Z,97901.41
2022-11-17T14:38:24.931Z,97907.63
2022-11-17T14:40:53.960Z,97910.81
2022-11-17T14:43:22.858Z,97922.66
2022-11-17T14:45:51.222Z,97928.53
2022-11-17T14:48:20.541Z,97918.25
2022-11-17T14:50:48.875Z,97909.31
2022-11-17T14:53:17.021Z,97912.97
2022-11-17T14:55:45.439Z,97911.69
2022-11-17T14:58:13.514Z,97911.84
2022-11-17T15:00:41.914Z,97912.63
2022-11-17T15:03:10.537Z,97910.22
2022-11-17T15:05:45.723Z,97908.59
2022-11-17T15:08:14.931Z,97906.44
2022-11-17T15:10:44.815Z,97901.84
2022-11-17T15:13:13.032Z,97895.63
2022-11-17T15:15:41.676Z,97911.69
2022-11-17T15:18:11.776Z,97913.22
2022-11-17T15:20:41.051Z,97914.63
2022-11-17T15:23:09.526Z,97919.69
2022-11-17T15:25:39.195Z,97921.81
2022-11-17T15:28:07.307Z,97925.75
2022-11-17T15:30:35.751Z,97918.56
2022-11-17T15:33:03.922Z,97925.34
2022-11-17T15:35:31.937Z,97920.97
2022-11-17T15:38:00.327Z,97910.19
2022-11-17T15:40:28.915Z,97907.31
2022-11-17T15:42:56.964Z,97907.34
2022-11-17T15:45:25.704Z,97909.44
2022-11-17T15:47:53.932Z,97904.06
2022-11-17T15:50:22.164Z,97908.00
2022-11-17T15:53:04.244Z,97898.75
2022-11-17T15:55:35.445Z,97898.56
2022-11-17T15:58:04.284Z,97901.91
2022-11-17T16:00:34.085Z,97905.69
2022-11-17T16:03:02.677Z,97899.75
2022-11-17T16:05:30.657Z,97891.72
2022-11-17T16:07:59.018Z,97898.50
2022-11-17T16:10:27.706Z,97894.78
2022-11-17T16:12:56.955Z,97891.19
2022-11-17T16:15:25.154Z,97894.19
2022-11-17T16:17:53.635Z,97879.09
2022-11-17T16:20:21.798Z,97871.19
2022-11-17T16:22:49.855Z,97862.09
2022-11-17T16:25:18.333Z,97874.44
2022-11-17T16:27:46.687Z,97887.31
2022-11-17T16:30:15.274Z,97884.19
2022-11-17T16:32:43.744Z,97882.19
2022-11-17T16:35:11.840Z,97891.00
2022-11-17T16:37:39.975Z,97904.06
2022-11-17T16:40:08.615Z,97925.78
2022-11-17T16:42:37.358Z,97926.28
2022-11-17T16:45:05.933Z,97933.13
2022-11-17T16:47:34.366Z,97943.75
2022-11-17T16:50:03.735Z,97954.00
2022-11-17T16:52:34.484Z,97952.97
2022-11-17T16:55:05.031Z,97948.00
2022-11-17T16:57:33.618Z,97958.25
2022-11-17T17:00:01.779Z,97962.84
2022-11-17T17:02:30.286Z,97974.37
2022-11-17T17:04:58.459Z,97974.00
2022-11-17T17:07:26.696Z,97966.84
2022-11-17T17:09:55.309Z,97968.34
2022-11-17T17:12:23.445Z,97969.25
2022-11-17T17:14:51.557Z,97966.22
2022-11-17T17:17:20.205Z,97966.84
2022-11-17T17:19:48.732Z,97959.53
2022-11-17T17:22:16.676Z,97957.94
2022-11-17T17:24:45.114Z,97955.88
2022-11-17T17:27:13.191Z,97961.06
2022-11-17T17:29:41.258Z,97975.09
2022-11-17T17:32:10.049Z,97969.47
2022-11-17T17:34:38.095Z,97960.28
2022-11-17T17:37:06.186Z,97956.00
2022-11-17T17:39:34.674Z,97950.19
2022-11-17T17:42:02.706Z,97955.50
2022-11-17T17:44:30.677Z,97950.75
2022-11-17T17:46:59.023Z,97945.91
2022-11-17T17:49:27.176Z,97947.50
2022-11-17T17:51:55.215Z,97943.78
2022-11-17T17:54:24.294Z,97948.66
2022-11-17T17:56:53.084Z,97943.91
2022-11-17T17:59:21.038Z,97943.78
2022-11-17T18:01:49.889Z,97942.00
2022-11-17T18:04:20.309Z,97942.09
2022-11-17T18:06:48.908Z,97947.50
2022-11-17T18:09:20.464Z,97956.19
2022-11-17T18:11:50.503Z,97959.91
2022-11-17T18:14:26.469Z,97948.47
2022-11-17T18:16:54.944Z,97939.78
2022-11-17T18:19:26.921Z,97943.22
2022-11-17T18:21:56.736Z,97940.94
2022-11-17T18:24:24.877Z,97937.59
2022-11-17T18:26:52.861Z,97930.56
2022-11-17T18:29:21.238Z,97929.56
2022-11-17T18:31:49.711Z,97928.50
2022-11-17T18:34:19.278Z,97931.47
2022-11-17T18:36:51.873Z,97925.19
2022-11-17T18:39:21.066Z,97927.87
2022-11-17T18:41:49.466Z,97924.12
2022-11-17T18:44:21.744Z,97919.44
2022-11-17T18:46:50.176Z,97916.31
2022-11-17T18:49:18.718Z,97909.38
2022-11-17T18:51:47.510Z,97911.88
2022-11-17T18:54:15.941Z,97916.31
2022-11-17T18:56:44.834Z,97924.44
2022-11-17T18:59:13.073Z,97925.56
2022-11-17T19:01:43.119Z,97924.50
2022-11-17T19:04:14.932Z,97929.78
2022-11-17T19:06:43.471Z,97935.00
2022-11-17T19:09:11.994Z,97929.00
2022-11-17T19:11:40.326Z,97918.13
2022-11-17T19:14:08.692Z,97913.03
2022-11-17T19:16:44.410Z,97917.28
2022-11-17T19:19:14.697Z,97920.31
2022-11-17T19:21:43.243Z,97924.19
2022-11-17T19:24:11.538Z,97911.03
2022-11-17T19:26:40.183Z,97918.97
2022-11-17T19:29:15.967Z,97915.53
2022-11-17T19:31:46.366Z,97913.28
2022-11-17T19:34:17.442Z,97908.56
2022-11-17T19:36:46.333Z,97911.69
2022-11-17T19:39:15.250Z,97920.78
2022-11-17T19:41:45.409Z,97913.37
2022-11-17T19:44:13.966Z,97895.50
2022-11-17T19:46:42.907Z,97884.06
2022-11-17T19:49:11.824Z,97878.44
2022-11-17T19:51:41.505Z,97878.28
2022-11-17T19:54:10.339Z,97890.28
2022-11-17T19:56:38.775Z,97888.88
2022-11-17T19:59:10.937Z,97871.62
2022-11-17T20:01:42.325Z,97888.47
2022-11-17T20:04:10.822Z,97908.03
2022-11-17T20:06:39.479Z,97903.97
2022-11-17T20:09:12.322Z,97908.00
2022-11-17T20:11:41.153Z,97899.03
2022-11-17T20:14:09.564Z,97887.34
2022-11-17T20:16:38.986Z,97886.97
2022-11-17T20:19:07.524Z,97848.00
2022-11-17T20:21:35.566Z,97872.91
2022-11-17T20:24:04.272Z,97894.62
2022-11-17T20:26:34.163Z,97910.31
2022-11-17T20:29:05.737Z,97913.56
2022-11-17T20:31:36.548Z,97915.78
2022-11-17T20:34:05.737Z,97913.78
2022-11-17T20:36:35.784Z,97923.25
2022-11-17T20:39:06.155Z,97922.59
2022-11-17T20:41:35.011Z,97923.16
2022-11-17T20:44:04.042Z,97913.59
2022-11-17T20:46:34.275Z,97926.94
2022-11-17T20:49:08.831Z,97924.41
2022-11-17T20:51:39.814Z,97923.91
2022-11-17T20:54:10.197Z,97905.78
2022-11-17T20:56:39.932Z,97909.28
2022-11-17T20:59:09.225Z,97906.06
2022-11-17T21:01:37.839Z,97917.38
2022-11-17T21:04:06.287Z,97919.75
2022-11-17T21:06:35.134Z,97912.47
2022-11-17T21:09:04.952Z,97911.44
2022-11-17T21:11:51.553Z,97908.25
2022-11-17T21:14:21.305Z,97899.13
2022-11-17T21:16:50.285Z,97901.31
2022-11-17T21:19:20.180Z,97912.22
2022-11-17T21:21:56.494Z,97911.06
2022-11-17T21:24:27.494Z,97891.75
2022-11-17T21:26:57.266Z,97902.06
2022-11-17T21:29:26.315Z,97902.91
2022-11-17T21:31:56.046Z,97921.94
2022-11-17T21:34:24.492Z,97925.19
2022-11-17T21:36:53.621Z,97923.78
2022-11-17T21:39:22.504Z,97914.09
2022-11-17T21:41:51.068Z,97908.44
2022-11-17T21:44:19.438Z,97904.34
2022-11-17T21:46:47.725Z,97886.44
2022-11-17T21:49:18.222Z,97879.53
2022-11-17T21:51:46.884Z,97884.03
2022-11-17T21:54:15.666Z,97904.69
2022-11-17T21:56:46.313Z,97907.47
2022-11-17T21:59:14.586Z,97905.22
2022-11-17T22:01:44.633Z,97907.25
2022-11-17T22:04:16.272Z,97910.44
2022-11-17T22:06:44.514Z,97896.91
2022-11-17T22:09:13.489Z,97910.06
2022-11-17T22:11:41.768Z,97920.03
2022-11-17T22:14:18.423Z,97910.13
2022-11-17T22:16:49.344Z,97900.94
2022-11-17T22:19:20.570Z,97895.03
2022-11-17T22:21:52.293Z,97895.38
2022-11-17T22:24:21.600Z,97898.16
2022-11-17T22:26:51.860Z,97879.78
2022-11-17T22:29:21.612Z,97890.72
2022-11-17T22:31:50.876Z,97896.81
2022-11-17T22:34:19.253Z,97887.69
2022-11-17T22:36:47.265Z,97891.19
2022-11-17T22:39:16.551Z,97892.28
2022-11-17T22:41:44.799Z,97886.44
2022-11-17T22:44:14.244Z,97876.63
2022-11-17T22:46:45.994Z,97876.94
2022-11-17T22:49:14.160Z,97883.13
2022-11-17T22:52:01.222Z,97885.41
2022-11-17T22:54:29.505Z,97881.75
2022-11-17T22:56:58.408Z,97869.97
2022-11-17T22:59:27.783Z,97863.91
2022-11-17T23:01:56.116Z,97864.97
2022-11-17T23:04:24.555Z,97865.91
2022-11-17T23:06:52.644Z,97858.84
2022-11-17T23:09:20.787Z,97862.72
2022-11-17T23:11:49.663Z,97862.03
2022-11-17T23:14:17.829Z,97859.87
2022-11-17T23:16:45.803Z,97862.62
2022-11-17T23:19:14.597Z,97867.44
2022-11-17T23:21:42.746Z,97860.66
2022-11-17T23:24:13.139Z,97857.97
2022-11-17T23:26:42.426Z,97855.78
2022-11-17T23:29:10.973Z,97862.66
2022-11-17T23:31:39.106Z,97867.87
2022-11-17T23:34:10.392Z,97871.12
2022-11-17T23:36:38.466Z,97862.78
2022-11-17T23:39:06.514Z,97855.72
2022-11-17T23:41:34.957Z,97866.13
2022-11-17T23:44:02.895Z,97864.50
2022-11-17T23:46:30.915Z,97853.72
2022-11-17T23:48:59.234Z,97855.50
2022-11-17T23:51:27.384Z,97847.25
2022-11-17T23:53:55.485Z,97842.00
2022-11-17T23:56:24.011Z,97843.22
2022-11-17T23:58:52.329Z,97847.62
